Aérodrome :
LOGIN :

S'inscrire | Disclaimer

   EN    FR    IT 

 










Légende :    VFR   VFR Marginal   IFR   IFR Intensif   IFR Très Intensif
Visi : 
Plafond : 
>= 8 km
>= 3000ft
5 à 8 km
1000 à 3000 ft
1500m à 5 km
500 à 1000 ft
800 à 1500m
200 à 500 ft
< 800m
< 200 ft
Symboles :   Orages  Brouillard  Fortes neiges  Fortes précipitations  Vent > 20 kt
SIGMETs :   Divers  Orages  Givrage  Turbulence  Onde Orograph.  Cendres Volcan.







- Altitude de l'aérodrome : 162 ft
- Code IATA : BOD
- Voir les cartes d'approche


LFBD - Bordeaux / Merignac

DERNIER METAR :
  • 250030Z AUTO 31004KT 9999 OVC012 13/11 Q1019 NOSIG

METARs EXPIRÉS :
  • 250000Z AUTO 31005KT 9999 OVC013 13/11 Q1019 BECMG BKN020
  • 242330Z AUTO 31005KT 9999 BKN013 BKN049 12/10 Q1019 BECMG BKN020
  • 242300Z AUTO 31007KT CAVOK 12/10 Q1019 NOSIG
  • 242230Z AUTO 32007KT CAVOK 13/10 Q1019 NOSIG
  • 242200Z AUTO 31007KT CAVOK 13/10 Q1018 NOSIG

TAF AMD TAF LFBD
Valide du 25 à 00h jusqu'au 26 à 06h UTC


250014Z 2500/2606 32008KT 9999 BKN020
TEMPO 2500/2508 BKN010
BECMG 2510/2512 BKN030
BECMG 2516/2518 CAVOK
BECMG 2520/2522 VRB02KT TX18/2515Z TN09/2603Z
ATIS : +33 5 57 92 81 04
Pas de NOTAMs connus pour ce terrain.



MET'MAP, la Météo Aéronautique d'un coup d'oeil ! - Copyright ORBIFLY Décembre 2007 - Disclaimer

ORBIFLY MET'MAP TEAM :

Programmation & Développement : Alexandra Zaïnal
Conception & Développement : Baudouin d'Aumeries
Co-Programmation & Développement : Marc-Olivier Méhu
Soutien technique & logistique : Manuel Goepfert

Contact : metmap@orbifly.com




SOURCES & CREDITS :

   NOAA